Time;durP1;ratioP1;P1;durP2;ratioP2;P2;SDS_P1;SDS_P2;PMS_P1;PMS_P2;Temp;Humidity;BMP_temperature;BMP_pressure;BME280_temperature;BME280_humidity;BME280_pressure;Samples;Min_cycle;Max_cycle;Signal;HPM_P1;HPM_P2
2021/01/15 00:07:29;;;;;;;;;;;;;;;;;;;;;
2021/01/15 00:09:55;;;;;;;6.60;4.15;;;-0.20;99.90;;;;;;4986435;28;20050;-96
2021/01/15 00:14:56;;;;;;;6.68;4.47;;;-0.30;99.90;;;;;;1132613;26;20151;-94
2021/01/15 00:17:22;;;;;;;7.47;4.40;;;-0.30;99.90;;;;;;4955244;29;20039;-94
2021/01/15 00:22:23;;;;;;;6.47;4.47;;;-0.30;99.90;;;;;;5789273;23;20071;-88
2021/01/15 00:24:50;;;;;;;8.85;4.38;;;-0.20;99.90;;;;;;4938279;29;20039;-88
2021/01/15 00:27:15;;;;;;;5.78;3.95;;;-0.20;99.90;;;;;;4937983;29;20032;-86
2021/01/15 00:29:43;;;;;;;7.45;4.15;;;-0.10;99.90;;;;;;4939804;29;20095;-87
2021/01/15 00:32:08;;;;;;;7.63;3.63;;;-0.10;99.90;;;;;;4940017;29;20037;-88
2021/01/15 00:34:34;;;;;;;5.85;4.15;;;-0.10;99.90;;;;;;4940669;29;20098;-87
2021/01/15 00:37:03;;;;;;;6.70;4.13;;;-0.20;99.90;;;;;;4953907;29;20019;-87
2021/01/15 00:39:31;;;;;;;10.02;5.00;;;-0.20;99.90;;;;;;4942942;29;20008;-86
2021/01/15 00:41:57;;;;;;;9.15;4.75;;;-0.30;99.90;;;;;;4959766;29;20035;-86
2021/01/15 00:44:23;;;;;;;5.93;4.38;;;-0.40;99.90;;;;;;4960016;29;20094;-86
2021/01/15 00:46:55;;;;;;;7.65;3.80;;;-0.50;99.90;;;;;;4941089;29;20042;-86
2021/01/15 00:49:23;;;;;;;6.90;4.15;;;-0.40;99.90;;;;;;4941839;29;20052;-85
2021/01/15 00:51:51;;;;;;;7.03;3.88;;;-0.50;99.90;;;;;;4929738;29;20092;-85
2021/01/15 00:54:17;;;;;;;7.32;4.25;;;-0.60;99.90;;;;;;4928036;29;20361;-89
2021/01/15 00:56:43;;;;;;;7.40;4.05;;;-0.70;99.90;;;;;;4925371;29;20065;-88
2021/01/15 00:59:09;;;;;;;8.00;4.68;;;-0.80;99.90;;;;;;4953500;29;20030;-88
2021/01/15 01:01:39;;;;;;;9.38;5.28;;;-0.90;99.90;;;;;;4957879;29;20040;-89
2021/01/15 01:04:05;;;;;;;7.13;4.45;;;-1.00;99.90;;;;;;4942201;29;20046;-90
2021/01/15 01:06:32;;;;;;;7.15;4.97;;;-1.10;99.90;;;;;;4928983;29;20019;-90
2021/01/15 01:09:02;;;;;;;12.10;4.90;;;-1.30;99.90;;;;;;4945598;29;20027;-89
2021/01/15 01:11:29;;;;;;;7.18;4.18;;;-1.40;99.90;;;;;;4925521;29;20020;-88
2021/01/15 01:13:57;;;;;;;7.60;4.35;;;-1.30;99.90;;;;;;4927682;29;20140;-89
2021/01/15 01:16:25;;;;;;;7.95;4.47;;;-1.40;99.90;;;;;;4951237;29;20024;-88
2021/01/15 01:18:51;;;;;;;10.73;5.45;;;-1.50;99.90;;;;;;4958289;29;20023;-88
2021/01/15 01:21:21;;;;;;;12.00;6.25;;;-1.50;99.90;;;;;;4894743;29;20082;-89
2021/01/15 01:23:50;;;;;;;9.32;5.13;;;-1.70;99.90;;;;;;4902828;29;20456;-90
2021/01/15 01:26:16;;;;;;;7.68;4.30;;;-1.80;99.90;;;;;;4886595;29;20032;-89
2021/01/15 01:28:43;;;;;;;7.75;3.90;;;-1.70;99.90;;;;;;4881966;29;20029;-89
2021/01/15 01:31:16;;;;;;;6.35;4.57;;;-1.90;99.90;;;;;;4899114;29;20157;-89
2021/01/15 01:33:42;;;;;;;10.07;3.83;;;-1.80;99.90;;;;;;4883369;29;20039;-88
2021/01/15 01:36:10;;;;;;;9.88;3.97;;;-1.80;99.90;;;;;;4889169;29;20041;-89
2021/01/15 01:38:37;;;;;;;7.65;4.45;;;-1.60;99.90;;;;;;4877940;29;20044;-87
2021/01/15 01:41:06;;;;;;;5.72;3.67;;;-1.60;99.90;;;;;;4885446;29;20060;-87
2021/01/15 01:43:32;;;;;;;7.38;3.97;;;-1.70;99.90;;;;;;4875044;29;20033;-87
2021/01/15 01:46:03;;;;;;;7.63;4.95;;;-1.70;99.90;;;;;;4896057;29;20514;-88
2021/01/15 01:48:29;;;;;;;7.85;5.05;;;-1.70;99.90;;;;;;4882263;29;20037;-89
2021/01/15 01:50:55;;;;;;;5.03;3.47;;;-1.80;99.90;;;;;;4861561;29;20063;-88
2021/01/15 01:53:27;;;;;;;10.27;5.88;;;-1.80;99.90;;;;;;4928264;29;20043;-89
2021/01/15 01:55:53;;;;;;;9.15;4.50;;;-1.90;99.90;;;;;;4923120;29;20107;-89
2021/01/15 01:58:20;;;;;;;6.63;4.30;;;-1.70;99.90;;;;;;4919239;29;20476;-87
2021/01/15 02:00:52;;;;;;;9.27;4.10;;;-1.70;99.90;;;;;;4938611;29;20027;-89
2021/01/15 02:03:18;;;;;;;5.68;3.75;;;-1.60;99.90;;;;;;4936321;29;20358;-88
2021/01/15 02:05:44;;;;;;;9.60;5.18;;;-1.50;99.90;;;;;;4930241;29;20020;-89
2021/01/15 02:08:15;;;;;;;8.25;5.03;;;-1.40;99.90;;;;;;4939420;29;20028;-88
2021/01/15 02:10:45;;;;;;;7.45;4.72;;;-1.50;99.90;;;;;;4943427;29;20043;-89
2021/01/15 02:13:36;;;;;;;8.05;4.53;;;-1.40;99.90;;;;;;4942309;29;20561;-88
2021/01/15 02:16:15;;;;;;;6.57;4.10;;;-1.40;99.90;;;;;;4919707;29;20046;-89
2021/01/15 02:19:05;;;;;;;7.03;4.38;;;-1.30;99.90;;;;;;4941073;29;20051;-90
2021/01/15 02:22:10;;;;;;;6.22;4.28;;;-1.10;99.90;;;;;;4842991;29;20090;-87
2021/01/15 02:24:36;;;;;;;10.93;4.85;;;-1.10;99.90;;;;;;4806972;29;20043;-88
2021/01/15 02:27:29;;;;;;;7.18;4.68;;;-1.10;99.90;;;;;;4809574;29;20050;-90
2021/01/15 02:30:20;;;;;;;9.63;4.50;;;-1.00;99.90;;;;;;4789408;29;20043;-90
2021/01/15 02:32:56;;;;;;;11.00;6.10;;;-0.80;99.90;;;;;;4739264;30;20040;-90
2021/01/15 02:35:32;;;;;;;7.25;4.88;;;-0.70;99.90;;;;;;4749620;30;20606;-90
2021/01/15 02:38:07;;;;;;;10.50;5.18;;;-0.70;99.90;;;;;;4756595;30;20109;-91
2021/01/15 02:40:41;;;;;;;9.75;5.50;;;-0.60;99.90;;;;;;4754602;30;20063;-88
2021/01/15 02:43:11;;;;;;;11.43;5.68;;;-0.50;99.90;;;;;;4742382;30;20145;-88
2021/01/15 02:45:38;;;;;;;11.55;6.03;;;-0.60;99.90;;;;;;4753487;30;20123;-88
2021/01/15 02:48:05;;;;;;;10.43;6.57;;;-0.60;99.90;;;;;;4753101;30;20047;-88
2021/01/15 02:50:31;;;;;;;9.77;6.35;;;-0.60;99.90;;;;;;4753205;30;20361;-88
2021/01/15 02:52:59;;;;;;;8.27;5.78;;;-0.60;99.90;;;;;;4752969;30;20143;-87
2021/01/15 02:55:25;;;;;;;12.40;7.20;;;-0.40;99.90;;;;;;4757208;30;20049;-88
2021/01/15 02:57:52;;;;;;;10.75;6.30;;;-0.40;99.90;;;;;;4801084;29;20096;-88
2021/01/15 03:00:21;;;;;;;12.23;5.95;;;-0.40;99.90;;;;;;4848892;29;20165;-88
2021/01/15 03:03:25;;;;;;;11.25;7.35;;;-0.30;99.90;;;;;;4827555;29;20444;-88
2021/01/15 03:06:03;;;;;;;11.20;6.30;;;-0.40;99.90;;;;;;4868842;29;20097;-88
2021/01/15 03:08:30;;;;;;;11.43;6.55;;;-0.40;99.90;;;;;;4857901;29;20130;-88
2021/01/15 03:11:01;;;;;;;8.50;5.22;;;-0.30;99.90;;;;;;4953986;29;20558;-89
2021/01/15 03:13:28;;;;;;;12.13;6.55;;;-0.30;99.90;;;;;;4956326;29;20043;-87
2021/01/15 03:16:00;;;;;;;13.18;5.85;;;-0.30;99.90;;;;;;4944968;29;20035;-88
2021/01/15 03:18:25;;;;;;;;;;;-0.20;99.90;;;;;;4938977;29;20024;-88
2021/01/15 03:20:53;;;;;;;11.82;6.45;;;-0.10;99.90;;;;;;4928162;29;20404;-89
2021/01/15 03:23:19;;;;;;;9.55;6.18;;;-0.10;99.90;;;;;;4941612;29;20040;-88
2021/01/15 03:25:45;;;;;;;10.60;5.88;;;-0.10;99.90;;;;;;4918390;29;20035;-87
2021/01/15 03:28:11;;;;;;;9.07;6.70;;;-0.10;99.90;;;;;;4901781;29;20041;-89
2021/01/15 03:30:38;;;;;;;12.35;6.13;;;-0.10;99.90;;;;;;4902988;29;20061;-87
2021/01/15 03:33:04;;;;;;;14.55;6.05;;;0.00;99.90;;;;;;4905024;29;20048;-88
2021/01/15 03:35:32;;;;;;;12.20;7.47;;;0.10;99.90;;;;;;4904226;29;20032;-88
2021/01/15 03:38:05;;;;;;;7.85;5.40;;;0.10;99.90;;;;;;4933089;29;20032;-87
2021/01/15 03:40:39;;;;;;;12.13;6.53;;;0.10;99.90;;;;;;4907528;29;20735;-88
2021/01/15 03:43:21;;;;;;;12.10;6.32;;;0.10;99.90;;;;;;4889707;29;20127;-88
2021/01/15 03:45:55;;;;;;;11.45;5.32;;;0.10;99.90;;;;;;4901011;29;20054;-88
2021/01/15 03:48:21;;;;;;;10.63;6.20;;;0.20;99.90;;;;;;4921958;29;20040;-88
2021/01/15 03:50:48;;;;;;;11.77;6.68;;;0.10;99.90;;;;;;4922664;29;20020;-87
2021/01/15 03:53:15;;;;;;;10.95;6.47;;;0.10;99.90;;;;;;4915446;29;20032;-86
2021/01/15 03:55:43;;;;;;;9.75;5.95;;;0.10;99.90;;;;;;4921131;29;20067;-88
2021/01/15 03:58:11;;;;;;;9.85;5.97;;;0.20;99.90;;;;;;4937952;28;20066;-88
2021/01/15 04:00:37;;;;;;;9.43;5.22;;;0.30;99.90;;;;;;4954962;29;20012;-87
2021/01/15 04:03:05;;;;;;;11.23;5.75;;;0.20;99.90;;;;;;4945251;29;20027;-89
2021/01/15 04:05:36;;;;;;;10.68;6.22;;;0.30;99.90;;;;;;4927144;29;20044;-88
2021/01/15 04:08:02;;;;;;;8.55;5.63;;;0.40;99.90;;;;;;4933352;29;20023;-87
2021/01/15 04:10:29;;;;;;;9.25;4.80;;;0.40;99.90;;;;;;4938345;29;20028;-87
2021/01/15 04:12:56;;;;;;;9.07;5.00;;;0.50;99.90;;;;;;4921196;29;20028;-87
2021/01/15 04:15:26;;;;;;;10.27;5.75;;;0.50;99.90;;;;;;4942461;29;20027;-83
2021/01/15 04:17:53;;;;;;;14.10;6.40;;;0.50;99.90;;;;;;4940479;29;20064;-88
2021/01/15 04:20:25;;;;;;;12.02;6.60;;;0.50;99.90;;;;;;4934810;29;20032;-86
2021/01/15 04:22:52;;;;;;;10.25;6.43;;;0.50;99.90;;;;;;4931136;29;20067;-88
2021/01/15 04:25:18;;;;;;;16.02;7.68;;;0.60;99.90;;;;;;4941005;29;20031;-88
2021/01/15 04:27:44;;;;;;;18.10;8.10;;;0.50;99.90;;;;;;4932062;29;20046;-87
2021/01/15 04:30:11;;;;;;;13.20;6.45;;;0.60;99.90;;;;;;4920462;29;20480;-87
2021/01/15 04:33:03;;;;;;;12.38;7.40;;;0.60;99.90;;;;;;4930822;29;20044;-86
2021/01/15 04:35:31;;;;;;;11.52;7.00;;;0.60;99.90;;;;;;4929209;29;20404;-88
2021/01/15 04:37:57;;;;;;;15.98;8.18;;;0.70;99.90;;;;;;4931512;29;20091;-88
2021/01/15 04:40:22;;;;;;;16.15;8.05;;;0.60;99.90;;;;;;4938683;29;20028;-88
2021/01/15 04:42:54;;;;;;;12.98;8.40;;;0.60;99.90;;;;;;4938676;29;20079;-88
2021/01/15 04:45:21;;;;;;;14.55;8.55;;;0.70;99.90;;;;;;4934732;29;20458;-88
2021/01/15 04:47:55;;;;;;;16.95;8.57;;;0.70;99.90;;;;;;4933623;29;20474;-88
2021/01/15 04:50:21;;;;;;;17.85;9.68;;;0.70;99.90;;;;;;4907773;29;20444;-89
2021/01/15 04:52:49;;;;;;;18.73;8.90;;;0.70;99.90;;;;;;4937870;29;20028;-88
2021/01/15 04:55:21;;;;;;;17.20;9.77;;;0.70;99.90;;;;;;4936721;29;20031;-89
2021/01/15 04:57:53;;;;;;;17.95;10.43;;;0.70;99.90;;;;;;4912263;29;20023;-88
2021/01/15 05:00:23;;;;;;;15.05;9.02;;;0.70;99.90;;;;;;4917494;29;20377;-89
2021/01/15 05:02:50;;;;;;;15.07;9.30;;;0.70;99.90;;;;;;4923583;29;20040;-88
2021/01/15 05:05:19;;;;;;;20.83;8.82;;;0.70;99.90;;;;;;4940200;29;20039;-89
2021/01/15 05:08:10;;;;;;;27.42;11.10;;;0.70;99.90;;;;;;4941431;29;20039;-87
2021/01/15 05:10:48;;;;;;;16.83;9.80;;;0.80;99.90;;;;;;4951836;29;20028;-88
2021/01/15 05:13:15;;;;;;;15.57;8.52;;;0.90;99.90;;;;;;4945658;29;20062;-89
2021/01/15 05:15:53;;;;;;;16.42;9.88;;;0.80;99.90;;;;;;4933180;29;20032;-88
2021/01/15 05:18:20;;;;;;;20.58;10.65;;;0.90;99.90;;;;;;4939084;29;20111;-89
2021/01/15 05:20:48;;;;;;;18.15;10.20;;;0.90;99.90;;;;;;4933891;29;20480;-90
2021/01/15 05:23:15;;;;;;;19.40;10.45;;;1.00;99.90;;;;;;4947929;29;20048;-89
2021/01/15 05:25:46;;;;;;;18.52;9.30;;;1.00;99.90;;;;;;4955997;29;20031;-87
2021/01/15 05:28:17;;;;;;;16.60;9.30;;;1.10;99.90;;;;;;4944349;29;20031;-86
2021/01/15 05:30:43;;;;;;;16.67;9.57;;;1.20;99.90;;;;;;4924272;29;20099;-88
2021/01/15 05:33:17;;;;;;;15.18;8.88;;;1.20;99.90;;;;;;4917464;29;20035;-88
2021/01/15 05:35:46;;;;;;;18.25;10.10;;;1.20;99.90;;;;;;4929510;29;20034;-87
2021/01/15 05:38:14;;;;;;;17.65;9.60;;;1.20;99.90;;;;;;4937021;29;20110;-87
2021/01/15 05:40:44;;;;;;;17.00;9.95;;;1.20;99.90;;;;;;4901048;29;20108;-87
2021/01/15 05:43:23;;;;;;;17.00;9.50;;;1.30;99.90;;;;;;4935244;29;20046;-86
2021/01/15 05:46:05;;;;;;;14.02;8.05;;;1.30;99.90;;;;;;4937963;29;20127;-87
2021/01/15 05:48:32;;;;;;;16.50;9.55;;;1.40;99.90;;;;;;4922658;29;20058;-86
2021/01/15 05:50:57;;;;;;;20.13;9.55;;;1.40;99.90;;;;;;4931158;29;20091;-86
2021/01/15 05:53:23;;;;;;;13.98;8.98;;;1.40;99.90;;;;;;4930658;29;20036;-86
2021/01/15 05:55:59;;;;;;;16.98;8.75;;;1.40;99.90;;;;;;4930775;29;20095;-87
2021/01/15 05:58:24;;;;;;;15.55;8.57;;;1.30;99.90;;;;;;4914983;29;20035;-87
2021/01/15 06:00:53;;;;;;;15.57;9.48;;;1.40;99.90;;;;;;4935696;29;20027;-86
2021/01/15 06:03:25;;;;;;;15.93;8.80;;;1.30;99.90;;;;;;4936783;29;20024;-88
2021/01/15 06:05:52;;;;;;;19.05;8.90;;;1.40;99.90;;;;;;4939046;29;20046;-87
2021/01/15 06:08:20;;;;;;;13.38;7.95;;;1.40;99.90;;;;;;4913950;29;20527;-87
2021/01/15 06:10:47;;;;;;;16.83;8.90;;;1.50;99.90;;;;;;4937345;29;20039;-89
2021/01/15 06:13:36;;;;;;;13.70;8.55;;;1.40;99.90;;;;;;4939760;29;20110;-86
2021/01/15 06:16:04;;;;;;;13.63;8.25;;;1.50;99.90;;;;;;4946505;29;20020;-87
2021/01/15 06:21:08;;;;;;;11.05;6.88;;;1.50;99.90;;;;;;4994605;28;20072;-87
2021/01/15 06:23:40;;;;;;;16.35;9.00;;;1.50;99.90;;;;;;4990542;28;20011;-87
2021/01/15 06:26:10;;;;;;;19.73;9.88;;;1.50;99.90;;;;;;4956700;28;20062;-88
2021/01/15 06:28:37;;;;;;;13.77;8.52;;;1.50;99.90;;;;;;4956209;29;20448;-89
2021/01/15 06:31:09;;;;;;;15.80;9.52;;;1.50;99.90;;;;;;4959486;28;20117;-89
2021/01/15 06:33:36;;;;;;;11.77;7.78;;;1.50;99.90;;;;;;4971084;28;20038;-89
2021/01/15 06:36:04;;;;;;;16.58;9.10;;;1.50;99.90;;;;;;4981038;28;20035;-87
2021/01/15 06:38:31;;;;;;;15.75;9.55;;;1.50;99.90;;;;;;4934180;28;20024;-88
2021/01/15 06:40:59;;;;;;;16.98;9.07;;;1.40;99.90;;;;;;4947117;29;20104;-89
2021/01/15 06:43:30;;;;;;;16.80;9.27;;;1.50;99.90;;;;;;4911514;29;20040;-88
2021/01/15 06:45:58;;;;;;;17.75;10.13;;;1.50;99.90;;;;;;4922789;29;20110;-89
2021/01/15 06:48:33;;;;;;;17.73;11.13;;;1.60;99.90;;;;;;4924935;29;20465;-89
2021/01/15 06:51:00;;;;;;;17.13;9.38;;;1.50;99.90;;;;;;4940999;28;20063;-88
2021/01/15 06:53:30;;;;;;;18.42;10.70;;;1.50;99.90;;;;;;4923520;29;20103;-89
2021/01/15 06:56:03;;;;;;;27.92;11.30;;;1.50;99.90;;;;;;4923607;29;20052;-90
2021/01/15 06:58:42;;;;;;;21.48;11.07;;;1.50;99.90;;;;;;4906630;29;20036;-89
2021/01/15 07:01:27;;;;;;;20.77;11.63;;;1.50;99.90;;;;;;4911426;29;20080;-87
2021/01/15 07:04:12;;;;;;;28.42;11.07;;;1.50;99.90;;;;;;4929973;29;20099;-88
2021/01/15 07:06:45;;;;;;;24.55;10.88;;;1.40;99.90;;;;;;4929356;29;20036;-90
2021/01/15 07:09:10;;;;;;;21.88;10.98;;;1.40;99.90;;;;;;4927010;29;20036;-90
2021/01/15 07:11:42;;;;;;;17.35;10.75;;;1.50;99.90;;;;;;4952532;29;20058;-89
2021/01/15 07:14:08;;;;;;;21.42;10.88;;;1.50;99.90;;;;;;4978449;28;20015;-89
2021/01/15 07:16:41;;;;;;;20.20;11.48;;;1.50;99.90;;;;;;4992456;28;20059;-90
2021/01/15 07:19:15;;;;;;;21.05;11.90;;;1.40;99.90;;;;;;4993444;28;20086;-88
2021/01/15 07:22:11;;;;;;;23.17;11.50;;;1.40;99.90;;;;;;4986440;28;20026;-89
2021/01/15 07:24:39;;;;;;;20.05;11.57;;;1.40;99.90;;;;;;4995744;28;20030;-89
2021/01/15 07:27:08;;;;;;;23.45;13.48;;;1.40;99.90;;;;;;4956000;29;20113;-89
2021/01/15 07:29:47;;;;;;;24.33;12.57;;;1.50;99.90;;;;;;4963750;28;20062;-90
2021/01/15 07:32:36;;;;;;;22.20;12.07;;;1.50;99.90;;;;;;4977521;28;20019;-90
2021/01/15 07:35:02;;;;;;;28.55;13.43;;;1.40;99.90;;;;;;4959125;28;20031;-89
2021/01/15 07:37:30;;;;;;;23.73;12.90;;;1.40;99.90;;;;;;4964691;28;20030;-89
2021/01/15 07:40:33;;;;;;;22.17;13.27;;;1.40;99.90;;;;;;4970290;28;20401;-90
2021/01/15 07:42:59;;;;;;;24.77;13.90;;;1.30;99.90;;;;;;4957127;28;20038;-88
2021/01/15 07:45:25;;;;;;;24.67;13.73;;;1.30;99.90;;;;;;4962242;28;20042;-89
2021/01/15 07:47:51;;;;;;;25.13;15.32;;;1.40;99.90;;;;;;4969172;28;20469;-88
2021/01/15 07:50:31;;;;;;;26.52;16.60;;;1.40;99.90;;;;;;4951084;28;20031;-88
2021/01/15 07:53:13;;;;;;;27.08;16.20;;;1.40;99.90;;;;;;4966700;28;20042;-89
2021/01/15 07:55:52;;;;;;;;;;;1.40;99.90;;;;;;4971418;28;20063;-88
2021/01/15 07:58:20;;;;;;;33.00;16.85;;;1.30;99.90;;;;;;4967103;28;19911;-89
2021/01/15 08:00:49;;;;;;;34.95;17.60;;;1.30;99.90;;;;;;4951802;28;20046;-88
2021/01/15 08:03:15;;;;;;;31.65;17.55;;;1.30;99.90;;;;;;4964214;28;20027;-89
2021/01/15 08:05:48;;;;;;;32.03;18.98;;;1.40;99.90;;;;;;4935268;29;20053;-90
2021/01/15 08:15:32;;;;;;;31.08;18.35;;;1.40;99.90;;;;;;4941285;28;20039;-87
2021/01/15 08:24:14;;;;;;;32.97;19.13;;;1.40;99.90;;;;;;4905857;29;20087;-88
2021/01/15 08:26:52;;;;;;;36.03;17.83;;;1.50;99.90;;;;;;4947538;29;20044;-87
2021/01/15 08:29:19;;;;;;;34.95;20.20;;;1.50;99.90;;;;;;4925075;29;20024;-90
2021/01/15 08:31:58;;;;;;;32.65;19.08;;;1.60;99.90;;;;;;4935279;29;20564;-89
2021/01/15 08:34:31;;;;;;;38.17;20.05;;;1.60;99.90;;;;;;4924258;29;20561;-89
2021/01/15 08:37:02;;;;;;;38.95;20.60;;;1.60;99.90;;;;;;4958971;28;20094;-87
2021/01/15 08:39:27;;;;;;;33.80;19.88;;;1.80;99.90;;;;;;4983701;28;20019;-88
2021/01/15 08:41:57;;;;;;;39.75;20.70;;;1.70;99.90;;;;;;4988472;28;20023;-87
2021/01/15 08:44:24;;;;;;;33.35;19.98;;;1.80;99.90;;;;;;4986200;28;20023;-90
2021/01/15 08:46:51;;;;;;;35.03;19.10;;;1.80;99.90;;;;;;4987189;28;20023;-89
2021/01/15 08:49:17;;;;;;;40.35;21.38;;;2.00;99.90;;;;;;4963758;28;20027;-90
2021/01/15 08:58:07;;;;;;;35.33;19.70;;;1.80;99.90;;;;;;4873095;29;20120;-92
2021/01/15 09:00:37;;;;;;;38.30;19.85;;;1.90;99.90;;;;;;4871226;29;20072;-90
2021/01/15 09:03:11;;;;;;;34.42;19.42;;;2.10;99.90;;;;;;4878892;29;20075;-89
2021/01/15 09:05:41;;;;;;;36.42;20.17;;;2.20;99.90;;;;;;4924254;23;20058;-88
2021/01/15 09:08:13;;;;;;;32.15;19.10;;;2.20;99.90;;;;;;5044796;23;20110;-91
2021/01/15 09:10:50;;;;;;;;;;;2.30;99.90;;;;;;5036441;23;20059;-87
2021/01/15 09:13:19;;;;;;;37.28;19.48;;;2.40;99.90;;;;;;5046951;23;19909;-90
2021/01/15 09:15:50;;;;;;;35.63;19.83;;;2.50;99.90;;;;;;4983549;23;20034;-93
2021/01/15 09:18:24;;;;;;;38.05;20.65;;;2.50;99.90;;;;;;4975890;28;20023;-90
2021/01/15 09:23:31;;;;;;;39.17;20.38;;;2.30;99.90;;;;;;5181662;23;20077;-88
2021/01/15 09:26:04;;;;;;;37.78;21.63;;;2.30;99.90;;;;;;4991751;28;20046;-87
2021/01/15 09:28:31;;;;;;;38.67;22.33;;;2.50;99.90;;;;;;5011516;28;20067;-89
2021/01/15 10:04:40;;;;;;;36.80;19.17;;;2.80;99.90;;;;;;5533741;23;20500;-89
2021/01/15 10:07:11;;;;;;;37.83;21.55;;;2.80;99.90;;;;;;4931290;29;20016;-89
2021/01/15 10:09:37;;;;;;;40.17;20.45;;;2.70;99.90;;;;;;4989677;28;20030;-91
2021/01/15 10:12:03;;;;;;;37.95;19.20;;;2.70;99.90;;;;;;4984243;28;20045;-90
2021/01/15 10:14:32;;;;;;;33.78;18.83;;;2.80;99.90;;;;;;4981922;28;20073;-90
2021/01/15 10:16:58;;;;;;;36.03;19.50;;;2.80;99.90;;;;;;4971028;28;20035;-88
2021/01/15 10:19:23;;;;;;;35.65;18.75;;;2.80;99.90;;;;;;4982338;28;20042;-91
2021/01/15 10:21:51;;;;;;;35.33;17.77;;;2.70;99.90;;;;;;4970591;28;20075;-89
2021/01/15 10:24:17;;;;;;;39.17;19.63;;;2.70;99.90;;;;;;4975129;28;20091;-89
2021/01/15 10:26:43;;;;;;;38.63;20.05;;;2.70;99.90;;;;;;4978889;28;20088;-90
2021/01/15 10:29:11;;;;;;;30.52;17.20;;;2.70;99.90;;;;;;4972311;28;20027;-88
2021/01/15 10:31:55;;;;;;;32.17;17.35;;;2.80;99.90;;;;;;4967205;28;20028;-88
2021/01/15 10:34:22;;;;;;;31.55;16.38;;;2.80;99.90;;;;;;4989253;28;20045;-89
2021/01/15 10:36:49;;;;;;;30.52;17.63;;;2.70;99.90;;;;;;4976271;28;20370;-89
2021/01/15 10:39:17;;;;;;;30.13;15.43;;;2.70;99.90;;;;;;4981254;28;20027;-90
2021/01/15 10:41:51;;;;;;;35.10;18.13;;;2.70;99.90;;;;;;4984370;28;20019;-89
2021/01/15 10:44:19;;;;;;;32.25;18.13;;;2.70;99.90;;;;;;4944458;29;20023;-90
2021/01/15 10:46:51;;;;;;;33.58;18.42;;;2.70;99.90;;;;;;4955506;28;20055;-91
2021/01/15 10:49:22;;;;;;;34.55;18.23;;;2.80;99.90;;;;;;4965321;29;20059;-90
2021/01/15 10:51:50;;;;;;;33.47;17.98;;;2.60;99.90;;;;;;4965664;28;20050;-87
2021/01/15 10:54:16;;;;;;;33.75;17.20;;;2.60;99.90;;;;;;4949445;28;20059;-90
2021/01/15 10:56:47;;;;;;;33.67;18.17;;;2.50;99.90;;;;;;4974579;28;20495;-90
2021/01/15 10:59:15;;;;;;;31.88;17.67;;;2.40;99.90;;;;;;4980000;28;20042;-89
2021/01/15 11:01:44;;;;;;;35.05;18.25;;;2.50;99.90;;;;;;4957849;28;20174;-90
2021/01/15 11:04:14;;;;;;;36.03;18.17;;;2.60;99.90;;;;;;4976274;28;20026;-90
2021/01/15 11:06:44;;;;;;;32.15;17.98;;;2.50;99.90;;;;;;4975005;28;20115;-90
2021/01/15 11:09:28;;;;;;;37.10;19.60;;;2.60;99.90;;;;;;4981230;28;20039;-93
2021/01/15 11:11:56;;;;;;;39.03;19.85;;;2.70;99.90;;;;;;4975312;28;20396;-91
2021/01/15 11:14:22;;;;;;;42.03;19.02;;;2.50;99.90;;;;;;4993951;28;20558;-90
2021/01/15 11:16:48;;;;;;;34.80;17.85;;;2.60;99.90;;;;;;4970589;29;20015;-90
2021/01/15 11:19:15;;;;;;;34.00;17.25;;;2.60;99.90;;;;;;4975567;28;20027;-90
2021/01/15 11:21:43;;;;;;;35.47;17.58;;;2.70;99.90;;;;;;4991753;28;20059;-90
2021/01/15 11:24:16;;;;;;;36.85;19.65;;;2.70;99.90;;;;;;4975743;28;20058;-90
2021/01/15 11:26:47;;;;;;;34.90;18.63;;;2.80;99.90;;;;;;4959739;28;20086;-89
2021/01/15 11:29:15;;;;;;;36.58;18.42;;;2.90;99.90;;;;;;4979024;28;20023;-91
2021/01/15 11:31:42;;;;;;;37.90;19.60;;;2.80;99.90;;;;;;4975356;28;20059;-89
2021/01/15 11:34:11;;;;;;;38.03;19.25;;;2.80;99.90;;;;;;4975936;28;20038;-91
2021/01/15 11:36:41;;;;;;;36.42;19.40;;;2.90;99.90;;;;;;4960013;29;20015;-90
2021/01/15 11:39:14;;;;;;;36.70;19.35;;;3.10;99.90;;;;;;4968539;28;20019;-91
2021/01/15 11:41:49;;;;;;;34.70;19.27;;;3.20;99.90;;;;;;4986682;28;20298;-90
2021/01/15 11:44:24;;;;;;;37.22;19.38;;;3.20;99.90;;;;;;4998965;28;20033;-89
2021/01/15 11:46:51;;;;;;;33.70;18.25;;;3.20;99.90;;;;;;4991647;28;20031;-91
2021/01/15 11:49:22;;;;;;;36.35;17.13;;;3.30;99.90;;;;;;4990643;28;20045;-89
2021/01/15 11:52:02;;;;;;;32.00;18.00;;;3.40;99.90;;;;;;4977036;28;20050;-91
2021/01/15 11:54:58;;;;;;;31.77;16.85;;;3.30;99.90;;;;;;4975447;29;20031;-89
2021/01/15 11:57:23;;;;;;;29.52;17.85;;;3.40;99.90;;;;;;4982234;28;20007;-91
2021/01/15 11:59:49;;;;;;;33.53;18.77;;;3.50;99.90;;;;;;4981154;28;20060;-89
2021/01/15 12:02:18;;;;;;;28.67;16.27;;;3.50;99.90;;;;;;4980747;28;20019;-91
2021/01/15 12:04:43;;;;;;;28.17;16.52;;;3.60;99.90;;;;;;4982609;28;20030;-88
2021/01/15 12:07:15;;;;;;;32.72;18.55;;;3.60;99.90;;;;;;4992381;28;20050;-89
2021/01/15 12:09:42;;;;;;;28.27;15.80;;;3.80;99.90;;;;;;4979817;28;20123;-91
2021/01/15 12:12:08;;;;;;;29.45;17.02;;;3.80;99.90;;;;;;4968757;28;20030;-90
2021/01/15 12:14:35;;;;;;;27.02;15.38;;;4.10;99.90;;;;;;4965772;28;20007;-90
2021/01/15 12:17:03;;;;;;;30.00;16.67;;;4.10;99.90;;;;;;4984188;28;20019;-91
2021/01/15 12:19:30;;;;;;;26.02;15.50;;;4.10;99.90;;;;;;4979986;29;20082;-89
2021/01/15 12:21:57;;;;;;;29.08;16.67;;;4.10;99.90;;;;;;4982072;28;20023;-90
2021/01/15 12:24:25;;;;;;;25.70;14.75;;;4.10;99.90;;;;;;4964139;29;20026;-92
2021/01/15 12:26:51;;;;;;;27.73;15.85;;;4.10;99.90;;;;;;4954322;28;20031;-89
2021/01/15 12:29:17;;;;;;;25.90;15.15;;;4.30;99.90;;;;;;4969842;28;20031;-90
2021/01/15 12:31:45;;;;;;;29.13;16.38;;;4.30;99.90;;;;;;4950229;28;20059;-90
2021/01/15 12:34:11;;;;;;;27.02;14.77;;;4.40;99.90;;;;;;4980493;28;20329;-91
2021/01/15 12:36:38;;;;;;;25.60;13.65;;;4.50;99.90;;;;;;4947911;28;20127;-91
2021/01/15 12:39:04;;;;;;;24.23;14.35;;;4.50;99.90;;;;;;4986014;28;20033;-92
2021/01/15 12:41:30;;;;;;;23.77;13.10;;;4.40;99.90;;;;;;4947078;28;20023;-91
2021/01/15 12:43:56;;;;;;;24.70;13.80;;;4.40;99.90;;;;;;4979034;28;20050;-90
2021/01/15 12:46:21;;;;;;;28.42;16.08;;;4.50;99.90;;;;;;4991452;28;20038;-89
2021/01/15 12:48:48;;;;;;;18.75;11.73;;;4.50;99.90;;;;;;4972060;28;20015;-90
2021/01/15 12:51:14;;;;;;;25.40;12.88;;;4.30;99.90;;;;;;4960582;28;20037;-90
2021/01/15 12:53:41;;;;;;;21.80;13.15;;;4.20;99.90;;;;;;4971253;29;20062;-90
2021/01/15 12:56:07;;;;;;;22.17;12.43;;;4.20;99.90;;;;;;4972779;28;20452;-90
2021/01/15 12:58:35;;;;;;;22.60;13.20;;;4.50;99.90;;;;;;4975044;28;20034;-89
2021/01/15 13:01:00;;;;;;;23.65;11.15;;;4.60;99.90;;;;;;4953646;29;20491;-89
2021/01/15 13:03:26;;;;;;;21.25;12.02;;;4.70;99.90;;;;;;4974410;28;20030;-90
2021/01/15 13:05:52;;;;;;;31.58;12.25;;;4.60;99.90;;;;;;4963377;28;20456;-91
2021/01/15 13:08:21;;;;;;;19.40;10.52;;;4.50;99.90;;;;;;4962400;29;20024;-91
2021/01/15 13:10:49;;;;;;;17.70;9.93;;;4.50;99.90;;;;;;4993199;28;20041;-91
2021/01/15 13:13:16;;;;;;;22.58;12.02;;;4.50;99.90;;;;;;4985253;28;20031;-90
2021/01/15 13:15:42;;;;;;;18.75;10.45;;;4.40;99.90;;;;;;4948350;29;20081;-88
2021/01/15 13:18:13;;;;;;;16.83;9.77;;;4.40;99.90;;;;;;4981315;28;20015;-89
2021/01/15 13:20:43;;;;;;;17.98;9.90;;;4.30;99.90;;;;;;4977042;28;20014;-90
2021/01/15 13:23:12;;;;;;;17.85;8.90;;;4.30;99.90;;;;;;4991871;28;20019;-87
2021/01/15 13:25:57;;;;;;;15.05;7.30;;;4.30;99.90;;;;;;4945722;28;20102;-88
2021/01/15 13:30:51;;;;;;;12.07;6.05;;;4.20;99.90;;;;;;4944577;29;20060;-90
2021/01/15 13:33:20;;;;;;;9.93;6.53;;;4.10;99.90;;;;;;4938100;29;20066;-91
2021/01/15 13:35:47;;;;;;;13.60;6.57;;;4.10;99.90;;;;;;4916931;29;20043;-89
2021/01/15 13:38:15;;;;;;;11.20;6.90;;;4.00;99.90;;;;;;4912406;29;20332;-91
2021/01/15 13:40:41;;;;;;;12.88;7.45;;;4.00;99.90;;;;;;4917648;29;20035;-90
2021/01/15 13:43:07;;;;;;;16.58;8.32;;;4.10;99.90;;;;;;4958493;29;20038;-88
2021/01/15 13:45:33;;;;;;;13.82;7.40;;;4.10;99.90;;;;;;4940779;29;20032;-89
2021/01/15 13:47:59;;;;;;;12.30;7.60;;;4.00;99.90;;;;;;4942396;29;20480;-87
2021/01/15 13:50:36;;;;;;;10.30;5.88;;;4.00;99.90;;;;;;4924310;29;20031;-89
2021/01/15 13:53:04;;;;;;;8.77;5.70;;;4.00;99.90;;;;;;4912916;29;20032;-88
2021/01/15 13:55:33;;;;;;;13.00;5.80;;;3.90;99.90;;;;;;4926013;29;20040;-89
2021/01/15 13:57:59;;;;;;;9.52;5.88;;;3.80;99.90;;;;;;4909769;29;20033;-90
2021/01/15 14:00:30;;;;;;;9.80;4.70;;;3.90;99.90;;;;;;4959975;23;20074;-90
2021/01/15 14:02:57;;;;;;;10.20;5.20;;;3.70;99.90;;;;;;4981500;28;20033;-92
2021/01/15 14:05:26;;;;;;;7.68;5.03;;;3.70;99.90;;;;;;5384150;23;20107;-93
2021/01/15 14:07:53;;;;;;;8.55;4.93;;;3.50;99.90;;;;;;5461037;23;20043;-86
2021/01/15 14:10:22;;;;;;;10.18;5.50;;;3.40;99.90;;;;;;5213654;23;20119;-94